Mersa Matruh, Egypt
Current Conditions -  °F | °C
As of 2:00 PM on Friday 28 Nov 2014 (Local Time) from HEMM Reporting Station
Clear Clear  
Wind Chill: 24°   Ceiling: Unl
Heat Index: 24°   Visibility: 6mi
Dew Point: 12°   Wind: 3mph
Humidity: 47%   Direction: 220°SW
Pressure: 30.21"   Gusts: NA
Location:  31.32°N, 27.22°E
Report Text: HEMM 281200Z 22003KT CAVOK 24/12 Q1023 NOSIG
Loading
Personal Weather Stations






























Interactive Weather Map New forecast layout! Learn more

10-Day Weather Forecast

Advertisements
Track Severe Weather on mobile